Time;durP1;ratioP1;P1;durP2;ratioP2;P2;SDS_P1;SDS_P2;PMS_P1;PMS_P2;Temp;Humidity;BMP_temperature;BMP_pressure;BME280_temperature;BME280_humidity;BME280_pressure;Samples;Min_cycle;Max_cycle;Signal;HPM_P1;HPM_P2
2023/08/13 00:00:46;;;;;;;6.38;2.45;;;;;;;;;;5048882;28;20021;-68
2023/08/13 00:03:11;;;;;;;6.13;2.63;;;;;;;;;;5049914;28;20021;-68
2023/08/13 00:05:36;;;;;;;6.03;2.25;;;;;;;;;;5065247;28;20086;-67
2023/08/13 00:08:05;;;;;;;9.60;2.65;;;;;;;;;;5050823;28;20044;-68
2023/08/13 00:10:36;;;;;;;4.05;2.20;;;;;;;;;;5050316;28;20108;-67
2023/08/13 00:13:01;;;;;;;10.13;2.22;;;;;;;;;;5049677;28;20107;-68
2023/08/13 00:15:29;;;;;;;4.57;2.40;;;;;;;;;;5050341;28;20403;-67
2023/08/13 00:17:55;;;;;;;5.30;2.10;;;;;;;;;;5051019;28;20389;-68
2023/08/13 00:20:20;;;;;;;8.10;2.75;;;;;;;;;;5050696;28;20470;-67
2023/08/13 00:22:48;;;;;;;5.95;2.55;;;;;;;;;;5049244;28;20024;-69
2023/08/13 00:25:13;;;;;;;4.70;2.30;;;;;;;;;;5050084;28;20029;-66
2023/08/13 00:27:39;;;;;;;4.53;2.28;;;;;;;;;;5050408;28;20398;-68
2023/08/13 00:30:05;;;;;;;9.55;2.17;;;;;;;;;;5049890;28;20013;-68
2023/08/13 00:32:36;;;;;;;5.35;2.22;;;;;;;;;;5050309;28;20021;-68
2023/08/13 00:35:01;;;;;;;6.10;2.50;;;;;;;;;;5035190;28;20554;-66
2023/08/13 00:37:26;;;;;;;4.75;2.30;;;;;;;;;;5043724;28;20105;-66
2023/08/13 00:39:54;;;;;;;10.60;3.20;;;;;;;;;;5050128;28;20074;-68
2023/08/13 00:42:22;;;;;;;6.13;2.47;;;;;;;;;;5050101;28;20049;-68
2023/08/13 00:44:47;;;;;;;5.65;2.60;;;;;;;;;;5050093;28;20021;-67
2023/08/13 00:47:12;;;;;;;4.47;2.42;;;;;;;;;;5049911;28;20536;-69
2023/08/13 00:49:38;;;;;;;15.68;2.92;;;;;;;;;;5048675;28;20631;-66
2023/08/13 00:52:03;;;;;;;5.82;2.67;;;;;;;;;;5040449;28;20087;-69
2023/08/13 00:54:29;;;;;;;5.75;2.30;;;;;;;;;;5038774;28;20127;-67
2023/08/13 00:56:54;;;;;;;8.52;2.40;;;;;;;;;;5048894;28;20121;-70
2023/08/13 00:59:20;;;;;;;4.80;2.10;;;;;;;;;;5049460;28;20032;-68
2023/08/13 01:01:46;;;;;;;8.48;2.92;;;;;;;;;;5049724;28;20021;-68
2023/08/13 01:04:11;;;;;;;6.28;2.30;;;;;;;;;;5049121;28;20128;-67
2023/08/13 01:06:53;;;;;;;4.75;2.08;;;;;;;;;;5049683;28;20075;-66
2023/08/13 01:09:24;;;;;;;6.97;2.88;;;;;;;;;;5037405;28;20017;-65
2023/08/13 01:12:22;;;;;;;5.63;2.35;;;;;;;;;;5048602;28;20049;-69
2023/08/13 01:14:53;;;;;;;5.40;2.60;;;;;;;;;;5036131;28;20037;-70
2023/08/13 01:17:21;;;;;;;6.20;3.05;;;;;;;;;;5049115;28;20016;-66
2023/08/13 01:19:47;;;;;;;5.25;2.40;;;;;;;;;;5048678;28;20025;-70
2023/08/13 01:22:12;;;;;;;9.48;2.47;;;;;;;;;;5049405;28;20052;-68
2023/08/13 01:24:37;;;;;;;5.95;2.50;;;;;;;;;;5048377;28;20017;-67
2023/08/13 01:27:21;;;;;;;8.63;2.67;;;;;;;;;;5049166;28;20021;-67
2023/08/13 01:29:54;;;;;;;7.60;2.58;;;;;;;;;;5048726;28;20067;-64
2023/08/13 01:32:21;;;;;;;6.40;3.03;;;;;;;;;;5049033;28;20025;-68
2023/08/13 01:34:47;;;;;;;5.95;2.40;;;;;;;;;;5038532;28;20044;-68
2023/08/13 01:37:13;;;;;;;6.10;2.72;;;;;;;;;;5041974;28;20017;-68
2023/08/13 01:39:39;;;;;;;6.82;2.72;;;;;;;;;;5048306;28;20023;-68
2023/08/13 01:42:06;;;;;;;7.10;2.50;;;;;;;;;;5049049;28;20024;-69
2023/08/13 01:44:31;;;;;;;8.35;3.20;;;;;;;;;;5048614;28;20028;-68
2023/08/13 01:46:56;;;;;;;6.68;2.58;;;;;;;;;;5048863;28;20037;-66
2023/08/13 01:52:06;;;;;;;8.82;2.92;;;;;;;;;;5042587;28;20061;-71
2023/08/13 01:54:32;;;;;;;10.07;2.72;;;;;;;;;;5049924;28;20472;-70
2023/08/13 01:56:57;;;;;;;6.78;2.67;;;;;;;;;;5050674;28;20013;-71
2023/08/13 01:59:22;;;;;;;6.00;2.53;;;;;;;;;;5050638;28;20033;-71
2023/08/13 02:01:47;;;;;;;7.85;2.30;;;;;;;;;;5050534;28;20121;-69
2023/08/13 02:04:13;;;;;;;4.78;1.98;;;;;;;;;;5050118;28;20013;-70
2023/08/13 02:06:38;;;;;;;6.37;2.17;;;;;;;;;;5049314;28;20024;-70
2023/08/13 02:09:04;;;;;;;9.60;2.35;;;;;;;;;;5050673;28;20308;-70
2023/08/13 02:11:29;;;;;;;4.70;2.33;;;;;;;;;;5049886;28;20079;-70
2023/08/13 02:13:54;;;;;;;6.30;2.58;;;;;;;;;;5049706;28;20036;-71
2023/08/13 02:16:19;;;;;;;5.20;2.33;;;;;;;;;;5050239;28;20009;-70
2023/08/13 02:18:44;;;;;;;6.80;2.30;;;;;;;;;;5049952;28;20027;-70
2023/08/13 02:21:10;;;;;;;4.78;2.80;;;;;;;;;;5049628;28;20063;-71
2023/08/13 02:23:35;;;;;;;4.95;2.72;;;;;;;;;;5049876;28;20104;-70
2023/08/13 02:26:00;;;;;;;5.80;2.40;;;;;;;;;;5050403;28;20019;-70
2023/08/13 02:28:25;;;;;;;5.65;2.70;;;;;;;;;;5050100;28;20021;-71
2023/08/13 02:30:51;;;;;;;5.65;2.38;;;;;;;;;;5049680;28;20393;-71
2023/08/13 02:33:16;;;;;;;6.85;2.63;;;;;;;;;;5044320;28;20455;-70
2023/08/13 02:35:41;;;;;;;6.80;2.60;;;;;;;;;;5035825;28;20044;-71
2023/08/13 02:38:07;;;;;;;4.07;2.35;;;;;;;;;;5048199;28;20037;-72
2023/08/13 02:40:32;;;;;;;5.05;1.98;;;;;;;;;;5048599;28;20025;-71
2023/08/13 02:42:57;;;;;;;5.22;2.45;;;;;;;;;;5049472;28;20024;-71
2023/08/13 02:45:23;;;;;;;4.50;2.50;;;;;;;;;;5049883;28;20032;-69
2023/08/13 02:47:48;;;;;;;7.20;2.47;;;;;;;;;;5049843;28;20254;-70
2023/08/13 02:50:13;;;;;;;5.17;2.30;;;;;;;;;;5049172;28;20273;-69
2023/08/13 02:52:38;;;;;;;6.13;2.60;;;;;;;;;;5045077;28;20728;-71
2023/08/13 02:55:04;;;;;;;5.75;2.92;;;;;;;;;;5049573;28;20013;-70
2023/08/13 02:57:29;;;;;;;5.57;2.50;;;;;;;;;;5049036;28;20023;-71
2023/08/13 02:59:54;;;;;;;5.22;2.53;;;;;;;;;;5049382;28;20013;-71
2023/08/13 03:02:19;;;;;;;5.78;2.47;;;;;;;;;;5049459;28;20092;-72
2023/08/13 03:04:45;;;;;;;11.48;2.85;;;;;;;;;;5049061;28;20092;-72
2023/08/13 03:07:10;;;;;;;7.13;2.65;;;;;;;;;;5049166;28;20044;-68
2023/08/13 03:09:35;;;;;;;8.23;2.88;;;;;;;;;;5049518;28;20024;-70
2023/08/13 03:12:01;;;;;;;7.72;2.35;;;;;;;;;;5049905;28;20028;-70
2023/08/13 03:14:26;;;;;;;5.63;2.45;;;;;;;;;;5049016;28;20095;-69
2023/08/13 03:16:51;;;;;;;5.95;2.45;;;;;;;;;;5049039;28;20173;-72
2023/08/13 03:19:16;;;;;;;4.50;2.22;;;;;;;;;;5053853;28;20063;-70
2023/08/13 03:21:41;;;;;;;4.10;2.22;;;;;;;;;;5053286;28;20344;-71
2023/08/13 03:24:07;;;;;;;4.90;2.53;;;;;;;;;;5053560;28;20479;-70
2023/08/13 03:26:32;;;;;;;5.78;2.85;;;;;;;;;;5052850;28;20445;-70
2023/08/13 03:28:57;;;;;;;4.95;2.60;;;;;;;;;;5053415;28;20016;-71
2023/08/13 03:31:22;;;;;;;7.00;2.50;;;;;;;;;;5052994;28;20032;-69
2023/08/13 03:33:47;;;;;;;5.73;2.53;;;;;;;;;;5052881;28;20523;-70
2023/08/13 03:36:13;;;;;;;6.63;2.83;;;;;;;;;;5042597;28;20291;-70
2023/08/13 03:38:38;;;;;;;6.68;2.90;;;;;;;;;;5052305;28;20048;-69
2023/08/13 03:41:03;;;;;;;5.45;3.20;;;;;;;;;;5052927;28;20017;-70
2023/08/13 03:43:28;;;;;;;5.63;2.90;;;;;;;;;;5053178;28;20016;-70
2023/08/13 03:45:54;;;;;;;10.27;3.13;;;;;;;;;;5052881;28;20036;-70
2023/08/13 03:48:19;;;;;;;7.57;3.33;;;;;;;;;;5053131;28;20013;-71
2023/08/13 03:50:44;;;;;;;5.47;3.33;;;;;;;;;;5049262;28;20473;-69
2023/08/13 03:53:10;;;;;;;7.20;3.30;;;;;;;;;;5046996;28;20015;-70
2023/08/13 03:55:38;;;;;;;5.70;3.67;;;;;;;;;;5052951;28;20017;-69
2023/08/13 03:58:04;;;;;;;8.55;4.25;;;;;;;;;;5053336;28;20092;-68
2023/08/13 04:00:29;;;;;;;8.48;4.32;;;;;;;;;;5052685;28;20097;-69
2023/08/13 04:02:55;;;;;;;9.93;4.00;;;;;;;;;;5053039;28;20017;-70
2023/08/13 04:05:20;;;;;;;7.97;3.70;;;;;;;;;;5051748;28;20013;-72
2023/08/13 04:07:45;;;;;;;8.88;3.28;;;;;;;;;;5052708;28;20366;-71
2023/08/13 04:10:10;;;;;;;7.95;3.60;;;;;;;;;;5052638;28;20051;-71
2023/08/13 04:12:36;;;;;;;5.97;3.13;;;;;;;;;;5053025;28;20074;-71
2023/08/13 04:15:01;;;;;;;6.28;3.17;;;;;;;;;;5050903;28;20467;-70
2023/08/13 04:17:27;;;;;;;9.32;3.65;;;;;;;;;;5052906;28;20071;-67
2023/08/13 04:19:52;;;;;;;6.75;3.28;;;;;;;;;;5052228;28;20032;-70
2023/08/13 04:22:17;;;;;;;5.75;3.33;;;;;;;;;;5052244;28;20017;-70
2023/08/13 04:24:47;;;;;;;9.05;3.70;;;;;;;;;;5052151;28;20016;-70
2023/08/13 04:27:12;;;;;;;7.70;4.32;;;;;;;;;;5052226;28;20024;-70
2023/08/13 04:29:38;;;;;;;6.50;2.97;;;;;;;;;;5051163;28;20025;-69
2023/08/13 04:32:03;;;;;;;6.47;3.60;;;;;;;;;;5052162;28;20071;-70
2023/08/13 04:34:28;;;;;;;5.80;3.22;;;;;;;;;;5043699;28;20025;-71
2023/08/13 04:36:53;;;;;;;5.07;3.37;;;;;;;;;;5042077;28;20017;-69
2023/08/13 04:39:19;;;;;;;8.17;3.10;;;;;;;;;;5052209;28;20684;-69
2023/08/13 04:41:44;;;;;;;8.20;3.30;;;;;;;;;;5051996;28;20274;-71
2023/08/13 04:44:09;;;;;;;12.35;3.95;;;;;;;;;;5050775;28;20024;-70
2023/08/13 04:46:34;;;;;;;7.90;2.90;;;;;;;;;;5050699;28;20100;-69
2023/08/13 04:48:59;;;;;;;7.75;3.30;;;;;;;;;;5050598;28;20017;-71
2023/08/13 04:51:25;;;;;;;8.80;4.30;;;;;;;;;;5049513;28;20028;-71
2023/08/13 04:53:50;;;;;;;7.95;2.95;;;;;;;;;;5051131;28;20096;-71
2023/08/13 04:56:15;;;;;;;7.55;2.80;;;;;;;;;;5051733;28;20047;-70
2023/08/13 04:58:42;;;;;;;5.45;2.85;;;;;;;;;;5051667;28;20559;-71
2023/08/13 05:01:07;;;;;;;5.75;3.30;;;;;;;;;;5051362;28;20104;-70
2023/08/13 05:03:32;;;;;;;9.23;3.47;;;;;;;;;;5051327;28;20110;-70
2023/08/13 05:05:57;;;;;;;6.93;3.23;;;;;;;;;;5051132;28;20234;-69
2023/08/13 05:08:23;;;;;;;6.45;3.22;;;;;;;;;;5051626;28;20332;-72
2023/08/13 05:10:48;;;;;;;7.90;4.20;;;;;;;;;;5050221;28;20016;-70
2023/08/13 05:13:14;;;;;;;5.55;2.60;;;;;;;;;;5051104;28;20013;-71
2023/08/13 05:15:39;;;;;;;7.53;3.17;;;;;;;;;;5051042;28;20093;-70
2023/08/13 05:18:05;;;;;;;5.00;2.67;;;;;;;;;;5051806;28;20096;-71
2023/08/13 05:20:30;;;;;;;5.25;2.60;;;;;;;;;;5051124;28;20359;-69
2023/08/13 05:22:55;;;;;;;8.50;3.35;;;;;;;;;;5050923;28;20017;-71
2023/08/13 05:25:20;;;;;;;8.23;3.33;;;;;;;;;;5051337;28;20461;-71
2023/08/13 05:27:46;;;;;;;9.20;2.80;;;;;;;;;;5051184;28;20013;-70
2023/08/13 05:30:11;;;;;;;8.05;3.38;;;;;;;;;;5051328;28;20110;-71
2023/08/13 05:32:36;;;;;;;5.28;2.80;;;;;;;;;;5051139;28;20024;-71
2023/08/13 05:35:02;;;;;;;10.13;3.60;;;;;;;;;;5039213;28;20076;-72
2023/08/13 05:37:27;;;;;;;11.18;2.70;;;;;;;;;;5043496;28;20266;-69
2023/08/13 05:39:52;;;;;;;5.95;2.85;;;;;;;;;;5051215;28;20417;-70
2023/08/13 05:42:18;;;;;;;7.35;3.47;;;;;;;;;;5050040;28;20458;-70
2023/08/13 05:44:43;;;;;;;5.88;2.88;;;;;;;;;;5050331;28;20489;-67
2023/08/13 05:47:08;;;;;;;5.82;3.28;;;;;;;;;;5051131;28;20362;-71
2023/08/13 05:49:33;;;;;;;6.25;3.40;;;;;;;;;;5050429;28;20024;-68
2023/08/13 05:51:58;;;;;;;7.22;3.00;;;;;;;;;;5048718;28;20028;-67
2023/08/13 05:54:24;;;;;;;9.02;3.63;;;;;;;;;;5049468;28;20397;-71
2023/08/13 05:56:49;;;;;;;7.63;3.00;;;;;;;;;;5049256;28;20454;-69
2023/08/13 05:59:14;;;;;;;12.00;3.23;;;;;;;;;;5049211;28;20475;-69
2023/08/13 06:01:40;;;;;;;4.15;2.30;;;;;;;;;;5049595;28;20274;-68
2023/08/13 06:04:05;;;;;;;7.40;2.85;;;;;;;;;;5049559;28;20092;-70
2023/08/13 06:06:30;;;;;;;6.18;2.78;;;;;;;;;;5049549;28;20021;-69
2023/08/13 06:08:55;;;;;;;4.85;2.47;;;;;;;;;;5050245;28;20016;-70
2023/08/13 06:11:21;;;;;;;5.40;2.10;;;;;;;;;;5049918;28;20035;-70
2023/08/13 06:13:46;;;;;;;9.75;2.38;;;;;;;;;;5049877;28;20021;-69
2023/08/13 06:16:11;;;;;;;7.10;3.10;;;;;;;;;;5047861;28;20029;-67
2023/08/13 06:18:36;;;;;;;4.22;2.10;;;;;;;;;;5048609;28;20608;-69
2023/08/13 06:21:03;;;;;;;5.97;2.23;;;;;;;;;;5049161;28;20019;-69
2023/08/13 06:23:29;;;;;;;5.20;2.10;;;;;;;;;;5049070;28;20307;-72
2023/08/13 06:25:54;;;;;;;5.43;2.20;;;;;;;;;;5049923;28;20096;-72
2023/08/13 06:28:19;;;;;;;4.20;2.10;;;;;;;;;;5049657;28;20021;-70
2023/08/13 06:30:44;;;;;;;4.20;1.93;;;;;;;;;;5049915;28;20249;-70
2023/08/13 06:33:10;;;;;;;6.32;2.13;;;;;;;;;;5049187;28;20246;-70
2023/08/13 06:35:35;;;;;;;7.38;2.55;;;;;;;;;;5044369;28;20009;-69
2023/08/13 06:38:00;;;;;;;4.10;2.30;;;;;;;;;;5049120;28;20013;-69
2023/08/13 06:40:25;;;;;;;4.65;1.90;;;;;;;;;;5049801;28;20040;-69
2023/08/13 06:42:50;;;;;;;4.00;2.08;;;;;;;;;;5049041;28;20058;-67
2023/08/13 06:45:16;;;;;;;6.97;2.10;;;;;;;;;;5049218;28;20021;-70
2023/08/13 06:47:41;;;;;;;7.25;1.88;;;;;;;;;;5049038;28;20041;-70
2023/08/13 06:50:07;;;;;;;2.72;1.40;;;;;;;;;;5048866;28;20474;-70
2023/08/13 06:52:32;;;;;;;6.00;2.00;;;;;;;;;;5039604;28;20409;-68
2023/08/13 06:54:57;;;;;;;6.03;1.73;;;;;;;;;;5049141;28;20538;-69
2023/08/13 06:57:22;;;;;;;3.60;1.70;;;;;;;;;;5048825;28;20253;-68
2023/08/13 06:59:48;;;;;;;6.75;2.30;;;;;;;;;;5048843;28;20071;-70
2023/08/13 07:02:13;;;;;;;4.70;2.20;;;;;;;;;;5048647;28;20029;-68
2023/08/13 07:04:39;;;;;;;7.03;4.13;;;;;;;;;;5048030;28;20041;-67
2023/08/13 07:07:06;;;;;;;4.72;2.63;;;;;;;;;;5048919;28;20421;-68
2023/08/13 07:09:31;;;;;;;5.80;1.90;;;;;;;;;;5049315;28;20094;-68
2023/08/13 07:11:56;;;;;;;4.05;1.73;;;;;;;;;;5049074;28;20486;-69
2023/08/13 07:14:22;;;;;;;3.63;2.03;;;;;;;;;;5048960;28;20449;-69
2023/08/13 07:16:47;;;;;;;3.13;1.80;;;;;;;;;;5049183;28;20773;-69
2023/08/13 07:19:12;;;;;;;3.30;1.60;;;;;;;;;;5049431;28;20470;-69
2023/08/13 07:21:37;;;;;;;4.40;2.03;;;;;;;;;;5048626;28;20021;-69
2023/08/13 07:24:04;;;;;;;5.18;2.00;;;;;;;;;;5047513;28;20265;-69
2023/08/13 07:26:29;;;;;;;4.28;1.58;;;;;;;;;;5048270;28;20009;-66
2023/08/13 07:28:54;;;;;;;4.18;1.80;;;;;;;;;;5039258;28;20078;-67
2023/08/13 07:31:20;;;;;;;4.55;1.80;;;;;;;;;;5047587;28;20043;-70
2023/08/13 07:33:45;;;;;;;3.47;1.60;;;;;;;;;;5039962;28;20374;-69
2023/08/13 07:36:10;;;;;;;2.95;1.65;;;;;;;;;;5040035;28;20406;-70
2023/08/13 07:38:35;;;;;;;3.97;1.60;;;;;;;;;;5048629;28;20035;-68
2023/08/13 07:41:03;;;;;;;5.63;1.80;;;;;;;;;;5049218;28;20374;-69
2023/08/13 07:43:28;;;;;;;6.57;1.50;;;;;;;;;;5047312;28;20341;-66
2023/08/13 07:45:53;;;;;;;3.08;1.60;;;;;;;;;;5048321;28;20570;-67
2023/08/13 07:48:19;;;;;;;5.30;1.50;;;;;;;;;;5048789;28;20032;-67
2023/08/13 07:50:44;;;;;;;2.90;1.40;;;;;;;;;;5053197;22;20535;-67
2023/08/13 07:53:09;;;;;;;5.53;1.73;;;;;;;;;;5004716;28;20294;-68
2023/08/13 07:55:35;;;;;;;3.50;1.60;;;;;;;;;;5004325;28;20022;-69
2023/08/13 07:58:00;;;;;;;6.35;1.85;;;;;;;;;;5007637;28;20510;-69
2023/08/13 08:00:26;;;;;;;5.45;1.80;;;;;;;;;;5005698;28;20034;-67
2023/08/13 08:02:51;;;;;;;3.47;1.60;;;;;;;;;;5022035;28;20030;-68
2023/08/13 08:05:17;;;;;;;4.78;2.15;;;;;;;;;;4997292;28;20093;-70
2023/08/13 08:07:42;;;;;;;3.03;1.60;;;;;;;;;;5009058;28;20022;-65
2023/08/13 08:10:07;;;;;;;5.43;1.83;;;;;;;;;;5011177;28;20017;-70
2023/08/13 08:12:33;;;;;;;4.20;1.75;;;;;;;;;;5010979;28;20052;-66
2023/08/13 08:14:58;;;;;;;5.30;1.60;;;;;;;;;;5008970;28;20045;-69
2023/08/13 08:17:23;;;;;;;6.32;1.55;;;;;;;;;;5000264;28;20468;-68
2023/08/13 08:19:48;;;;;;;2.92;1.52;;;;;;;;;;5005910;28;20431;-69
2023/08/13 08:22:14;;;;;;;3.05;1.52;;;;;;;;;;5003597;28;20483;-68
2023/08/13 08:24:39;;;;;;;4.75;1.70;;;;;;;;;;5024742;28;20094;-70
2023/08/13 08:27:07;;;;;;;5.95;1.95;;;;;;;;;;5010458;28;20021;-66
2023/08/13 08:29:32;;;;;;;2.00;1.30;;;;;;;;;;5009778;28;20013;-66
2023/08/13 08:31:58;;;;;;;4.72;1.60;;;;;;;;;;5001464;28;20396;-69
2023/08/13 08:34:23;;;;;;;7.57;2.03;;;;;;;;;;5008279;28;20062;-68
2023/08/13 08:36:48;;;;;;;3.33;1.65;;;;;;;;;;5005173;28;20507;-69
2023/08/13 08:39:14;;;;;;;5.80;1.65;;;;;;;;;;5008887;28;20458;-68
2023/08/13 08:41:45;;;;;;;5.20;1.50;;;;;;;;;;5010111;28;20022;-68
2023/08/13 08:44:12;;;;;;;6.22;1.48;;;;;;;;;;5008670;28;20018;-67
2023/08/13 08:46:38;;;;;;;8.15;1.42;;;;;;;;;;5008143;28;20014;-69
2023/08/13 08:49:04;;;;;;;3.50;1.40;;;;;;;;;;5009443;28;20022;-68
2023/08/13 08:51:29;;;;;;;3.67;1.70;;;;;;;;;;5002404;28;20070;-68
2023/08/13 08:53:55;;;;;;;7.03;1.80;;;;;;;;;;5006120;28;20427;-68
2023/08/13 08:56:21;;;;;;;4.97;1.50;;;;;;;;;;5009748;28;20021;-68
2023/08/13 08:58:46;;;;;;;2.10;1.30;;;;;;;;;;4998977;28;20037;-68
2023/08/13 09:01:11;;;;;;;3.38;1.40;;;;;;;;;;5009777;28;20025;-67
2023/08/13 09:03:36;;;;;;;4.32;1.40;;;;;;;;;;5009064;28;20116;-69
2023/08/13 09:06:02;;;;;;;4.60;1.63;;;;;;;;;;5007651;28;20448;-66
2023/08/13 09:08:27;;;;;;;3.22;1.73;;;;;;;;;;5006828;28;20490;-69
2023/08/13 09:10:53;;;;;;;8.57;2.75;;;;;;;;;;5009398;28;20503;-66
2023/08/13 09:13:18;;;;;;;3.92;1.77;;;;;;;;;;5008504;28;20384;-69
2023/08/13 09:15:44;;;;;;;5.43;2.30;;;;;;;;;;5008638;28;20032;-68
2023/08/13 09:18:10;;;;;;;4.60;1.70;;;;;;;;;;5006134;28;20030;-69
2023/08/13 09:20:41;;;;;;;4.13;1.90;;;;;;;;;;5006129;28;20026;-70
2023/08/13 09:23:07;;;;;;;3.65;1.95;;;;;;;;;;4994829;28;20018;-68
2023/08/13 09:25:32;;;;;;;6.17;1.90;;;;;;;;;;5008778;28;20029;-66
2023/08/13 09:27:57;;;;;;;3.43;1.60;;;;;;;;;;5009781;28;20318;-68
2023/08/13 09:30:30;;;;;;;4.07;1.77;;;;;;;;;;4999896;28;20651;-69
2023/08/13 09:32:56;;;;;;;6.50;2.30;;;;;;;;;;5009280;28;20333;-68
2023/08/13 09:35:21;;;;;;;4.60;2.00;;;;;;;;;;4994408;28;20399;-69
2023/08/13 09:37:47;;;;;;;6.70;2.45;;;;;;;;;;5004342;28;20013;-69
2023/08/13 09:40:12;;;;;;;4.88;2.10;;;;;;;;;;5008319;28;20033;-65
2023/08/13 09:42:38;;;;;;;5.78;1.98;;;;;;;;;;5007268;28;20029;-69
2023/08/13 09:45:05;;;;;;;5.43;1.90;;;;;;;;;;5007121;28;20091;-69
2023/08/13 09:47:32;;;;;;;5.28;1.67;;;;;;;;;;5009442;28;20044;-67
2023/08/13 09:49:58;;;;;;;6.17;1.73;;;;;;;;;;5005002;28;20045;-69
2023/08/13 09:52:27;;;;;;;2.75;1.63;;;;;;;;;;5009486;28;20263;-69
2023/08/13 09:54:56;;;;;;;4.28;1.65;;;;;;;;;;5007548;28;20306;-67
2023/08/13 09:57:22;;;;;;;4.82;1.70;;;;;;;;;;5008712;28;20104;-70
2023/08/13 09:59:49;;;;;;;4.90;1.90;;;;;;;;;;5023683;28;20454;-71
2023/08/13 10:02:14;;;;;;;10.85;1.90;;;;;;;;;;5008524;28;20033;-68
2023/08/13 10:04:40;;;;;;;8.05;2.60;;;;;;;;;;5005368;28;20013;-69
2023/08/13 10:07:05;;;;;;;7.47;1.80;;;;;;;;;;5007340;28;20379;-67
2023/08/13 10:09:32;;;;;;;4.72;1.27;;;;;;;;;;4999511;28;20044;-68
2023/08/13 10:11:57;;;;;;;3.47;1.70;;;;;;;;;;5023001;28;20022;-70
2023/08/13 10:14:23;;;;;;;5.43;1.95;;;;;;;;;;5008322;28;20020;-68
2023/08/13 10:16:48;;;;;;;7.63;1.92;;;;;;;;;;5008161;28;20020;-67
2023/08/13 10:19:15;;;;;;;10.27;1.90;;;;;;;;;;5009261;28;20037;-67
2023/08/13 10:21:40;;;;;;;5.30;2.20;;;;;;;;;;5022133;28;20046;-69
2023/08/13 10:24:10;;;;;;;5.70;1.50;;;;;;;;;;4995075;28;20068;-70
2023/08/13 10:26:35;;;;;;;4.32;1.83;;;;;;;;;;4993973;28;20018;-70
2023/08/13 10:29:13;;;;;;;5.40;2.05;;;;;;;;;;4994652;28;20062;-70
2023/08/13 10:31:38;;;;;;;7.40;1.60;;;;;;;;;;4990732;28;20456;-72
2023/08/13 10:34:07;;;;;;;2.65;1.48;;;;;;;;;;4994426;28;20048;-67
2023/08/13 10:36:43;;;;;;;3.22;1.55;;;;;;;;;;4992174;28;20076;-70
2023/08/13 10:39:27;;;;;;;3.35;1.35;;;;;;;;;;4992591;28;20025;-68
2023/08/13 10:41:53;;;;;;;10.45;1.55;;;;;;;;;;4993527;28;20134;-68
2023/08/13 10:44:28;;;;;;;4.75;1.42;;;;;;;;;;4991777;28;20018;-68
2023/08/13 10:46:54;;;;;;;7.05;1.50;;;;;;;;;;4991422;28;20025;-68
2023/08/13 10:49:20;;;;;;;3.80;1.67;;;;;;;;;;4990287;28;20022;-67
2023/08/13 10:51:47;;;;;;;6.00;1.50;;;;;;;;;;4991800;28;20129;-67
2023/08/13 10:54:13;;;;;;;4.60;1.30;;;;;;;;;;4990639;28;20565;-66
2023/08/13 10:56:42;;;;;;;4.35;1.20;;;;;;;;;;4988600;28;20037;-69
2023/08/13 10:59:07;;;;;;;3.35;1.38;;;;;;;;;;4991495;28;20021;-69
2023/08/13 11:01:32;;;;;;;5.93;1.70;;;;;;;;;;4994138;28;20030;-67
2023/08/13 11:03:58;;;;;;;3.03;1.20;;;;;;;;;;4990942;28;20332;-67
2023/08/13 11:06:25;;;;;;;4.25;1.40;;;;;;;;;;4987755;28;20036;-68
2023/08/13 11:08:50;;;;;;;6.13;1.35;;;;;;;;;;5007645;28;20037;-67
2023/08/13 11:11:16;;;;;;;2.92;1.30;;;;;;;;;;4995002;28;20021;-69
2023/08/13 11:13:41;;;;;;;3.00;1.40;;;;;;;;;;4992015;28;20041;-69
2023/08/13 11:16:07;;;;;;;3.88;1.40;;;;;;;;;;4991435;28;20030;-70
2023/08/13 11:18:32;;;;;;;5.22;1.67;;;;;;;;;;4991947;28;20027;-66
2023/08/13 11:20:57;;;;;;;5.68;1.55;;;;;;;;;;4990817;28;20019;-70
2023/08/13 11:23:22;;;;;;;5.40;1.77;;;;;;;;;;4994187;28;20112;-69
2023/08/13 11:25:49;;;;;;;3.63;1.40;;;;;;;;;;4990760;28;20083;-70
2023/08/13 11:28:17;;;;;;;7.45;1.58;;;;;;;;;;4994726;28;20026;-69
2023/08/13 11:30:43;;;;;;;3.53;2.08;;;;;;;;;;4990718;28;20097;-70
2023/08/13 11:33:08;;;;;;;3.80;1.35;;;;;;;;;;4989586;28;20058;-70
2023/08/13 11:35:33;;;;;;;7.35;1.52;;;;;;;;;;4993301;28;20189;-70
2023/08/13 11:37:59;;;;;;;3.75;1.60;;;;;;;;;;4995779;28;20045;-68
2023/08/13 11:40:24;;;;;;;4.63;1.63;;;;;;;;;;4996809;28;20030;-71
2023/08/13 11:42:54;;;;;;;3.65;1.65;;;;;;;;;;4997050;28;20050;-66
2023/08/13 11:45:21;;;;;;;2.65;1.42;;;;;;;;;;4995421;28;20117;-69
2023/08/13 11:47:46;;;;;;;2.85;1.40;;;;;;;;;;4996375;28;20077;-70
2023/08/13 11:50:19;;;;;;;2.67;1.55;;;;;;;;;;5005438;28;20029;-70
2023/08/13 11:52:59;;;;;;;2.92;1.40;;;;;;;;;;4994652;28;20078;-71
2023/08/13 11:55:25;;;;;;;5.22;1.55;;;;;;;;;;4996678;28;20101;-67
2023/08/13 11:57:50;;;;;;;6.43;1.38;;;;;;;;;;4997891;28;20172;-70
2023/08/13 12:00:17;;;;;;;5.93;1.50;;;;;;;;;;4992983;28;20026;-69
2023/08/13 12:02:42;;;;;;;2.25;1.20;;;;;;;;;;4994498;28;20728;-68
2023/08/13 12:05:11;;;;;;;6.68;1.48;;;;;;;;;;4994820;28;20041;-70
2023/08/13 12:07:40;;;;;;;2.13;1.20;;;;;;;;;;5008986;28;20146;-71
2023/08/13 12:10:05;;;;;;;2.95;1.55;;;;;;;;;;4994619;28;20014;-68
2023/08/13 12:12:31;;;;;;;4.13;1.60;;;;;;;;;;4996636;28;20030;-69
2023/08/13 12:14:57;;;;;;;2.97;1.50;;;;;;;;;;4993623;28;20549;-70
2023/08/13 12:17:22;;;;;;;8.25;1.90;;;;;;;;;;4996066;28;20863;-67
2023/08/13 12:19:47;;;;;;;2.80;1.33;;;;;;;;;;4989879;28;20018;-70
2023/08/13 12:22:12;;;;;;;3.38;1.40;;;;;;;;;;4991312;28;20044;-68
2023/08/13 12:24:38;;;;;;;3.20;1.55;;;;;;;;;;4995729;28;20091;-69
2023/08/13 12:27:03;;;;;;;4.00;1.40;;;;;;;;;;4997116;28;20153;-69
2023/08/13 12:29:28;;;;;;;4.68;1.40;;;;;;;;;;4992279;28;20113;-70
2023/08/13 12:31:53;;;;;;;3.25;1.50;;;;;;;;;;4992400;28;20747;-71
2023/08/13 12:34:19;;;;;;;3.88;1.45;;;;;;;;;;4994013;28;20537;-70
2023/08/13 12:36:44;;;;;;;3.65;1.35;;;;;;;;;;4992492;28;20022;-67
2023/08/13 12:39:09;;;;;;;4.05;1.45;;;;;;;;;;4993666;28;20035;-70
2023/08/13 12:41:34;;;;;;;2.00;1.27;;;;;;;;;;4990462;28;21117;-70
2023/08/13 12:44:00;;;;;;;3.58;1.58;;;;;;;;;;4992162;28;20416;-71
2023/08/13 12:46:25;;;;;;;2.53;1.50;;;;;;;;;;4993831;28;20033;-70
2023/08/13 12:48:50;;;;;;;3.53;1.58;;;;;;;;;;4991718;28;20298;-68
2023/08/13 12:51:15;;;;;;;5.60;1.92;;;;;;;;;;4987772;28;20052;-70
2023/08/13 12:53:40;;;;;;;2.07;1.30;;;;;;;;;;4997441;28;20018;-70
2023/08/13 12:56:06;;;;;;;2.67;1.40;;;;;;;;;;4998589;28;20625;-71
2023/08/13 12:58:32;;;;;;;6.05;1.63;;;;;;;;;;4994095;28;20034;-71
2023/08/13 13:00:58;;;;;;;2.28;1.27;;;;;;;;;;4994435;28;20186;-69
2023/08/13 13:03:23;;;;;;;5.35;1.83;;;;;;;;;;4993210;28;20863;-68
2023/08/13 13:05:49;;;;;;;1.92;1.23;;;;;;;;;;4994677;28;20018;-70
2023/08/13 13:08:14;;;;;;;3.60;1.58;;;;;;;;;;4995311;28;20022;-71
2023/08/13 13:10:39;;;;;;;3.37;1.60;;;;;;;;;;4994452;28;20405;-67
2023/08/13 13:13:06;;;;;;;2.33;1.17;;;;;;;;;;4994418;28;20781;-70
2023/08/13 13:15:31;;;;;;;4.47;1.63;;;;;;;;;;5010050;28;20037;-71
2023/08/13 13:17:57;;;;;;;2.80;1.57;;;;;;;;;;4993625;28;20042;-70
2023/08/13 13:20:24;;;;;;;2.72;1.30;;;;;;;;;;4991743;28;20310;-69
2023/08/13 13:22:49;;;;;;;2.88;1.55;;;;;;;;;;4991046;28;20030;-69
2023/08/13 13:25:14;;;;;;;3.85;1.60;;;;;;;;;;4991613;28;20093;-71
2023/08/13 13:27:41;;;;;;;2.83;1.67;;;;;;;;;;4997070;28;20026;-66
2023/08/13 13:30:06;;;;;;;3.08;1.42;;;;;;;;;;4993541;28;20533;-69
2023/08/13 13:32:32;;;;;;;3.95;1.52;;;;;;;;;;4991458;28;20042;-69
2023/08/13 13:34:58;;;;;;;3.83;1.70;;;;;;;;;;4999440;28;20065;-71
2023/08/13 13:37:23;;;;;;;3.67;1.70;;;;;;;;;;4999530;28;20037;-69
2023/08/13 13:39:48;;;;;;;3.85;1.92;;;;;;;;;;5007142;28;20259;-69
2023/08/13 13:42:13;;;;;;;6.57;1.60;;;;;;;;;;5005196;28;20021;-70
2023/08/13 13:44:39;;;;;;;3.88;1.70;;;;;;;;;;5005787;28;20497;-67
2023/08/13 13:47:04;;;;;;;3.35;1.23;;;;;;;;;;5006873;28;20029;-70
2023/08/13 13:49:29;;;;;;;2.67;1.40;;;;;;;;;;5007100;28;20313;-66
2023/08/13 13:51:55;;;;;;;2.85;1.60;;;;;;;;;;5007257;28;20748;-69
2023/08/13 13:54:20;;;;;;;3.72;1.65;;;;;;;;;;5001654;28;20149;-68
2023/08/13 13:56:45;;;;;;;7.00;2.00;;;;;;;;;;5006805;28;20026;-70
2023/08/13 13:59:10;;;;;;;8.33;1.70;;;;;;;;;;5008806;28;20025;-69
2023/08/13 14:01:35;;;;;;;4.43;1.52;;;;;;;;;;5022344;28;20294;-69
2023/08/13 14:04:01;;;;;;;8.17;1.50;;;;;;;;;;5009901;28;20028;-68
2023/08/13 14:06:26;;;;;;;3.22;1.45;;;;;;;;;;5008804;28;20251;-69
2023/08/13 14:08:51;;;;;;;3.53;1.53;;;;;;;;;;5008356;28;20014;-71
2023/08/13 14:11:16;;;;;;;4.40;1.70;;;;;;;;;;5009423;28;20323;-70
2023/08/13 14:13:41;;;;;;;2.93;1.60;;;;;;;;;;5009944;28;20274;-70
2023/08/13 14:16:07;;;;;;;5.20;1.70;;;;;;;;;;5009149;28;20342;-67
2023/08/13 14:18:32;;;;;;;5.00;1.55;;;;;;;;;;5009617;28;20390;-71
2023/08/13 14:20:57;;;;;;;2.28;1.35;;;;;;;;;;5009386;28;20044;-68
2023/08/13 14:23:22;;;;;;;3.08;1.63;;;;;;;;;;5023116;28;20026;-70
2023/08/13 14:25:49;;;;;;;5.22;1.73;;;;;;;;;;5008848;28;20029;-69
2023/08/13 14:28:14;;;;;;;2.53;1.52;;;;;;;;;;5008741;28;20473;-70
2023/08/13 14:30:40;;;;;;;3.37;1.80;;;;;;;;;;5008039;28;20022;-67
2023/08/13 14:33:05;;;;;;;3.47;1.70;;;;;;;;;;5008644;28;20679;-70
2023/08/13 14:35:31;;;;;;;3.40;1.87;;;;;;;;;;4995974;28;20576;-70
2023/08/13 14:37:57;;;;;;;5.03;1.50;;;;;;;;;;5008385;28;20878;-67